Terminal Aerodrome Forecast
Issued by NWS

Home | Current Version | Previous Version | Text Only | Print | Product List | Glossary On
Versions: 1 2 3 4 5 6 7 8 9 10 11 12 13 14 15
000
FTUS46 KPDT 241128
TAFBDN
TAF
KBDN 241128Z 2412/2512 21011KT P6SM VCSH SCT050 BKN100
     FM241800 22014G24KT P6SM VCSH BKN050 OVC090
     FM250100 32008KT P6SM VCSH BKN040 BKN090=

USA.gov is the U.S. government's official web portal to all federal, state and local government web resources and services.